• Join FlightAware (Why Join?)
  • Login
  • US Flag 
06:12AM EDT


 

Airport Tracker/Info


-or-


 

Live Flight TrackerFlight Track Log ✈ SWA1960 ✈ 21-Apr-2013 ✈ KBWI - KCHS

Flight Track Log - Related Links

Times and Time Zones

All times are in EDT time to prevent confusion due to time zone crossing. See the SWA1960 flight status page for this flight to view local times or setup timezone preferences in your user account.

Time Position Orientation Groundspeed Altitude Reporting Facility
EDT Latitude Longitude Course Direction KTS MPH feet Rate Location/Type
02:22PM 39.1667 -76.7333 166° South 181 208 2,900  Level Potomac TRACON
02:23PM 39.1167 -76.7167 165° South 217 250 6,300 3,420 Climbing Potomac TRACON
02:24PM 39.0667 -76.6667 142° Southeast 227 261 9,900 3,120 Climbing Potomac TRACON
02:25PM 39.0333 -76.6000 123° Southeast 250 288 12,700 1,980 Climbing Potomac TRACON
02:26PM 38.9500 -76.5667 163° South 332 382 14,000 960 Climbing Potomac TRACON
02:27PM 38.8500 -76.6000 195° South 359 413 14,800 1,800 Climbing Potomac TRACON
02:28PM 38.7314 -76.6481 198° South 373 429 18,200 1,920 Climbing Washington Center
02:29PM 38.6331 -76.6919 199° South 373 429 19,000 960 Climbing Washington Center
02:30PM 38.5389 -76.7278 197° South 368 423 20,200 1,860 Climbing Washington Center
02:31PM 38.4347 -76.7156 175° South 365 420 22,800 1,560 Climbing Washington Center
02:32PM 38.3244 -76.6981 173° South 378 435 23,400 1,500 Climbing Washington Center
02:33PM 38.2161 -76.6778 172° South 391 450 25,900 1,260 Climbing Washington Center
02:34PM 38.1017 -76.6631 174° South 402 463 26,000 780 Climbing Washington Center
02:35PM 37.9892 -76.6483 174° South 408 470 27,500 1,320 Climbing Washington Center
02:37PM 37.7639 -76.6714 185° South 403 464 30,000 780 Climbing Washington Center
02:38PM 37.6511 -76.6831 185° South 408 470 30,000  Level Washington Center
02:39PM 37.5383 -76.6997 187° South 408 470 30,000  Level Washington Center
02:40PM 37.4275 -76.7164 187° South 408 470 30,000  Level Washington Center
02:41PM 37.3186 -76.7617 198° South 408 470 30,000 1,140 Level Washington Center
02:42PM 37.2139 -76.8072 199° South 408 470 32,300 2,100 Climbing Washington Center
02:43PM 37.1114 -76.8472 197° South 402 463 34,300 1,800 Climbing Washington Center
02:44PM 37.0147 -76.8897 199° South 390 449 36,000 1,620 Climbing Washington Center
02:45PM 36.9164 -76.9297 198° South 379 436 37,600 960 Climbing Washington Center
02:46PM 36.8219 -76.9697 199° South 367 422 38,000 180 Climbing Washington Center
02:47PM 36.7297 -77.0069 198° South 367 422 38,000  Level Washington Center
02:48PM 36.6478 -77.0700 212° Southwest 360 414 38,000  Level Washington Center
02:49PM 36.5675 -77.1436 216° Southwest 354 407 38,000  Level Washington Center
02:50PM 36.4894 -77.2117 215° Southwest 354 407 38,000  Level Washington Center
02:51PM 36.4092 -77.2825 215° Southwest 359 413 38,000  Level Washington Center
02:52PM 36.3308 -77.3531 216° Southwest 359 413 38,000  Level Washington Center
02:53PM 36.2506 -77.4206 214° Southwest 364 419 38,000  Level Washington Center
02:54PM 36.1850 -77.4833 218° Southwest 353 406 38,000  Level Washington Center
02:55PM 36.1044 -77.5536 215° Southwest 353 406 38,000  Level Washington Center
02:56PM 36.0242 -77.6233 215° Southwest 353 406 38,000  Level Washington Center
02:57PM 35.9458 -77.6908 215° Southwest 359 413 38,000  Level Washington Center
02:58PM 35.8631 -77.7603 214° Southwest 364 419 38,000  Level Washington Center
02:59PM 35.7825 -77.8297 215° Southwest 364 419 38,000  Level Washington Center
03:00PM 35.6997 -77.9017 215° Southwest 364 419 38,000  Level Washington Center
03:01PM 35.6172 -77.9708 214° Southwest 364 419 38,000 -240 Level Washington Center
03:02PM 35.5342 -78.0422 215° Southwest 364 419 37,600 -660 Descending Washington Center
03:03PM 35.4514 -78.1086 213° Southwest 364 419 36,700 -840 Descending Washington Center
03:04PM 35.3664 -78.1825 215° Southwest 369 425 36,000 -900 Descending Washington Center
03:05PM 35.2794 -78.2483 212° Southwest 369 425 35,000 -1,020 Descending Washington Center
03:06PM 35.1925 -78.3139 212° Southwest 374 430 34,000 -1,020 Descending Washington Center
03:07PM 35.1011 -78.3844 212° Southwest 374 430 33,000 -1,020 Descending Washington Center
03:08PM 35.0203 -78.4478 213° Southwest 369 425 32,000 -1,020 Descending Washington Center
03:09PM 34.9394 -78.5108 213° Southwest 364 419 31,000 -1,020 Descending Washington Center
03:10PM 34.8589 -78.5686 210° Southwest 351 404 30,000 -1,020 Descending Washington Center
03:11PM 34.7950 -78.6219 214° Southwest 333 383 29,000 -1,020 Descending Washington Center
03:12PM 34.7078 -78.6869 211° Southwest 333 383 28,000 -420 Descending Washington Center
03:14PM 34.5850 -78.7794 212° Southwest 337 388 28,000  Level Jacksonville Center
03:15PM 34.5036 -78.8414 212° Southwest 342 394 28,000  Level Jacksonville Center
03:16PM 34.4222 -78.9081 214° Southwest 349 402 28,000  Level Jacksonville Center
03:17PM 34.3389 -78.9747 213° Southwest 354 407 28,000  Level Jacksonville Center
03:18PM 34.2531 -79.0314 209° Southwest 354 407 28,000 -300 Level Jacksonville Center
03:19PM 34.1603 -79.0731 200° South 354 407 27,500 -780 Descending Jacksonville Center
03:20PM 34.0636 -79.1150 200° South 360 414 26,500 -1,020 Descending Jacksonville Center
03:21PM 33.9731 -79.1564 201° Southwest 365 420 25,500 -1,020 Descending Jacksonville Center
03:22PM 33.8825 -79.1978 201° Southwest 365 420 24,500 -1,020 Descending Jacksonville Center
03:23PM 33.7919 -79.2392 201° Southwest 360 414 23,500 -1,080 Descending Jacksonville Center
03:24PM 33.7061 -79.3000 211° Southwest 340 391 22,400 -900 Descending Jacksonville Center
03:25PM 33.6261 -79.3581 211° Southwest 340 391 21,800 -840 Descending Jacksonville Center
03:26PM 33.5467 -79.4186 212° Southwest 340 391 20,800 -1,500 Descending Jacksonville Center
03:27PM 33.4669 -79.4817 213° Southwest 340 391 18,900 -1,800 Descending Jacksonville Center
03:28PM 33.3892 -79.5367 211° Southwest 340 391 17,200 2,520 Descending Jacksonville Center
03:29PM 33.3114 -79.5969 213° Southwest 340 391 24,000 -3,300 Climbing Jacksonville Center
03:30PM 33.2253 -79.6572 210° Southwest 349 402 10,600 -7,020 Descending Jacksonville Center
03:31PM 33.1428 -79.6972 202° Southwest 344 396 10,000 -960 Descending Jacksonville Center
03:32PM 33.0686 -79.7322 202° Southwest 316 364 8,700 -1,260 Descending Jacksonville Center
03:33PM 33.0006 -79.7669 203° Southwest 290 334 7,500 -1,380 Descending Jacksonville Center
03:34PM 32.9344 -79.7989 202° Southwest 271 312 6,000 -1,740 Descending Jacksonville Center
03:35PM 32.8664 -79.8358 205° Southwest 271 312 4,100 -1,020 Descending Jacksonville Center
03:36PM 32.8047 -79.8725 207° Southwest 265 305 4,000 -180 Descending Jacksonville Center
03:37PM 32.7789 -79.9303 242° Southwest 213 245 3,800 -600 Descending Jacksonville Center
03:38PM 32.7700 -79.9972 261° West 198 228 2,900 -900 Descending Jacksonville Center
03:40PM 32.8833 -80.0333 348° North  Level FlightAware Approximate
03:47PM 32.8986 -80.0405 348° North  Level Estimated
03:48PM 32.8986 -80.0405 348° North  Level Estimated
03:49PM 32.8986 -80.0405 348° North  Level Estimated
03:50PM 32.8986 -80.0405 348° North  Level Estimated
03:51PM 32.8986 -80.0405 348° North  Level Estimated